Geneseo, NY (14454)

6:37 AM EST on January 27, 2015 (GMT -0500)
Temple Hill | Change Station
CLOSE
Current Station
Personal Weather Station
Location: Geneseo, NY
Elevation: 899 ft
Nearby Weather Stations

Elev 899 ft 42.79 °N, 77.81 °W | Updated 7 minutes ago

Snow
Snow
14.2 °F
Feels Like 14 °F
N
2.7
Wind Variable Wind from SW

Today
High -- | Low -- °F
--% Chance of Precip.
Yesterday
High -- | Low -- °F
Precip. -- in
7:30 AM 5:17 PM
First Quarter, 53% visible
Pressure 29.90 in
Visibility 6.0 miles
Clouds Scattered Clouds 2000 ft
Scattered Clouds 2500 ft
Overcast 3400 ft
Windchill 14 °F
Dew Point 13 °F
Humidity 94%
Rainfall 0.00 in
Snow Depth Not available.
UV 0 out of 12
Pollen .10 out of 12
Air Quality Not available.
Flu Activity Not available.
SPECI KDSV 271007Z AUTO 33006KT 6SM -SN BR SCT020 SCT025 OVC034 M08/M11 A2990 RMK AO2 P0000 T10831106

More Conditions Fewer Conditions

Pressure 29.90 in
Visibility 6.0 miles
Clouds Scattered Clouds 2000 ft
Scattered Clouds 2500 ft
Overcast 3400 ft
Windchill 14 °F
Dew Point 13 °F
Humidity 94%
Rainfall 0.00 in
Snow Depth Not available.
UV 0 out of 12
Pollen .10 out of 12
Air Quality Not available.
Flu Activity Not available.
SPECI KDSV 271007Z AUTO 33006KT 6SM -SN BR SCT020 SCT025 OVC034 M08/M11 A2990 RMK AO2 P0000 T10831106

More Conditions Fewer Conditions

10-Day Weather Forecast

Almanac

Astronomy

Jan. 27, 2015 Rise Set
Actual Time
Civil Twilight
Nautical Twilight
Astronomical Twilight
Moon
Length of Visible Light
Length of Day
Tomorrow will be .
, % of the Moon is Illuminated

Today's Extremes

State Highs State Lows

Community

WunderPhotos

Upload Photos

1,790,564 photos uploaded!

WunderBlogs® & News

Nearby

Air Quality

  Air Quality AQ Index Pollutant
Not available.

Snow Depth

Station Depth Elevation

Earthquake Activity

City Distance Mag. Time & Date
Minimum magnitude displayed is 2.5.

Coastal Water Temperatures

Place Temperature

Nearby Weather Stations